sensor_id;sensor_type;location;lat;lon;timestamp;P1;durP1;ratioP1;P2;durP2;ratioP2
43807;SDS011;29438;50.664;10.098;2023-06-22T00:01:03;9.00;;;4.93;;
43807;SDS011;29438;50.664;10.098;2023-06-22T00:03:29;7.47;;;4.72;;
43807;SDS011;29438;50.664;10.098;2023-06-22T00:05:54;7.38;;;4.60;;
43807;SDS011;29438;50.664;10.098;2023-06-22T00:08:21;8.30;;;4.78;;
43807;SDS011;29438;50.664;10.098;2023-06-22T00:10:46;8.52;;;5.40;;
43807;SDS011;29438;50.664;10.098;2023-06-22T00:13:12;9.55;;;5.30;;
43807;SDS011;29438;50.664;10.098;2023-06-22T00:15:41;7.88;;;5.03;;
43807;SDS011;29438;50.664;10.098;2023-06-22T00:18:07;9.23;;;5.40;;
43807;SDS011;29438;50.664;10.098;2023-06-22T00:20:33;9.35;;;5.47;;
43807;SDS011;29438;50.664;10.098;2023-06-22T00:23:01;7.85;;;5.03;;
43807;SDS011;29438;50.664;10.098;2023-06-22T00:25:28;7.53;;;5.15;;
43807;SDS011;29438;50.664;10.098;2023-06-22T00:27:53;8.68;;;5.10;;
43807;SDS011;29438;50.664;10.098;2023-06-22T00:30:19;7.53;;;4.68;;
43807;SDS011;29438;50.664;10.098;2023-06-22T00:32:44;7.70;;;5.15;;
43807;SDS011;29438;50.664;10.098;2023-06-22T00:35:11;8.00;;;5.25;;
43807;SDS011;29438;50.664;10.098;2023-06-22T00:37:37;7.70;;;4.90;;
43807;SDS011;29438;50.664;10.098;2023-06-22T00:40:05;9.30;;;5.38;;
43807;SDS011;29438;50.664;10.098;2023-06-22T00:42:32;9.25;;;5.70;;
43807;SDS011;29438;50.664;10.098;2023-06-22T00:44:57;9.82;;;5.15;;
43807;SDS011;29438;50.664;10.098;2023-06-22T00:47:23;8.82;;;5.32;;
43807;SDS011;29438;50.664;10.098;2023-06-22T00:49:49;7.20;;;4.80;;
43807;SDS011;29438;50.664;10.098;2023-06-22T00:52:19;7.25;;;4.70;;
43807;SDS011;29438;50.664;10.098;2023-06-22T00:54:49;8.70;;;5.38;;
43807;SDS011;29438;50.664;10.098;2023-06-22T00:57:16;9.05;;;5.10;;
43807;SDS011;29438;50.664;10.098;2023-06-22T00:59:43;7.93;;;4.93;;
43807;SDS011;29438;50.664;10.098;2023-06-22T01:02:10;7.40;;;5.07;;
43807;SDS011;29438;50.664;10.098;2023-06-22T01:04:36;9.18;;;5.25;;
43807;SDS011;29438;50.664;10.098;2023-06-22T01:17:50;9.27;;;5.47;;
43807;SDS011;29438;50.664;10.098;2023-06-22T01:20:17;7.82;;;5.13;;
43807;SDS011;29438;50.664;10.098;2023-06-22T01:22:50;9.65;;;5.75;;
43807;SDS011;29438;50.664;10.098;2023-06-22T01:28:17;9.55;;;5.75;;
43807;SDS011;29438;50.664;10.098;2023-06-22T01:30:51;10.30;;;5.63;;
43807;SDS011;29438;50.664;10.098;2023-06-22T01:33:28;9.10;;;5.32;;
43807;SDS011;29438;50.664;10.098;2023-06-22T01:35:55;10.15;;;5.72;;
43807;SDS011;29438;50.664;10.098;2023-06-22T01:38:21;9.02;;;5.50;;
43807;SDS011;29438;50.664;10.098;2023-06-22T01:40:47;8.93;;;5.40;;
43807;SDS011;29438;50.664;10.098;2023-06-22T01:43:14;9.68;;;6.00;;
43807;SDS011;29438;50.664;10.098;2023-06-22T01:45:40;9.77;;;5.88;;
43807;SDS011;29438;50.664;10.098;2023-06-22T01:48:06;9.15;;;5.53;;
43807;SDS011;29438;50.664;10.098;2023-06-22T01:50:32;9.73;;;5.65;;
43807;SDS011;29438;50.664;10.098;2023-06-22T01:52:57;8.25;;;5.43;;
43807;SDS011;29438;50.664;10.098;2023-06-22T01:55:23;9.15;;;5.70;;
43807;SDS011;29438;50.664;10.098;2023-06-22T01:57:49;10.95;;;5.95;;
43807;SDS011;29438;50.664;10.098;2023-06-22T02:00:17;8.95;;;5.15;;
43807;SDS011;29438;50.664;10.098;2023-06-22T02:02:59;9.53;;;5.87;;
43807;SDS011;29438;50.664;10.098;2023-06-22T02:05:29;9.68;;;5.38;;
43807;SDS011;29438;50.664;10.098;2023-06-22T02:08:04;8.00;;;5.32;;
43807;SDS011;29438;50.664;10.098;2023-06-22T02:10:37;8.80;;;5.38;;
43807;SDS011;29438;50.664;10.098;2023-06-22T02:13:06;8.00;;;5.35;;
43807;SDS011;29438;50.664;10.098;2023-06-22T02:15:32;7.85;;;5.18;;
43807;SDS011;29438;50.664;10.098;2023-06-22T02:17:59;7.75;;;4.97;;
43807;SDS011;29438;50.664;10.098;2023-06-22T02:20:25;8.07;;;4.90;;
43807;SDS011;29438;50.664;10.098;2023-06-22T02:22:51;8.05;;;4.82;;
43807;SDS011;29438;50.664;10.098;2023-06-22T02:25:16;9.15;;;5.65;;
43807;SDS011;29438;50.664;10.098;2023-06-22T02:27:42;7.70;;;5.15;;
43807;SDS011;29438;50.664;10.098;2023-06-22T02:30:08;8.13;;;5.25;;
43807;SDS011;29438;50.664;10.098;2023-06-22T02:32:36;8.82;;;5.20;;
43807;SDS011;29438;50.664;10.098;2023-06-22T02:35:02;9.00;;;5.50;;
43807;SDS011;29438;50.664;10.098;2023-06-22T02:37:31;10.02;;;5.28;;
43807;SDS011;29438;50.664;10.098;2023-06-22T02:39:57;7.97;;;5.18;;
43807;SDS011;29438;50.664;10.098;2023-06-22T02:42:23;8.02;;;5.32;;
43807;SDS011;29438;50.664;10.098;2023-06-22T02:44:48;9.90;;;5.32;;
43807;SDS011;29438;50.664;10.098;2023-06-22T02:47:14;7.07;;;5.20;;
43807;SDS011;29438;50.664;10.098;2023-06-22T02:49:40;7.60;;;5.18;;
43807;SDS011;29438;50.664;10.098;2023-06-22T02:52:06;7.80;;;4.68;;
43807;SDS011;29438;50.664;10.098;2023-06-22T02:54:32;8.30;;;5.50;;
43807;SDS011;29438;50.664;10.098;2023-06-22T02:56:58;8.40;;;5.50;;
43807;SDS011;29438;50.664;10.098;2023-06-22T02:59:27;8.00;;;5.32;;
43807;SDS011;29438;50.664;10.098;2023-06-22T03:01:53;8.85;;;5.43;;
43807;SDS011;29438;50.664;10.098;2023-06-22T03:04:18;11.55;;;5.50;;
43807;SDS011;29438;50.664;10.098;2023-06-22T03:06:44;9.70;;;5.43;;
43807;SDS011;29438;50.664;10.098;2023-06-22T03:09:16;10.77;;;5.45;;
43807;SDS011;29438;50.664;10.098;2023-06-22T03:11:42;8.55;;;5.30;;
43807;SDS011;29438;50.664;10.098;2023-06-22T03:14:07;8.77;;;5.63;;
43807;SDS011;29438;50.664;10.098;2023-06-22T03:16:33;10.18;;;5.57;;
43807;SDS011;29438;50.664;10.098;2023-06-22T03:18:59;9.77;;;5.85;;
43807;SDS011;29438;50.664;10.098;2023-06-22T03:21:26;9.48;;;6.18;;
43807;SDS011;29438;50.664;10.098;2023-06-22T03:23:53;10.40;;;7.07;;
43807;SDS011;29438;50.664;10.098;2023-06-22T03:26:19;10.73;;;6.40;;
43807;SDS011;29438;50.664;10.098;2023-06-22T03:28:45;9.70;;;6.63;;
43807;SDS011;29438;50.664;10.098;2023-06-22T03:31:11;10.10;;;6.85;;
43807;SDS011;29438;50.664;10.098;2023-06-22T03:33:36;10.75;;;7.15;;
43807;SDS011;29438;50.664;10.098;2023-06-22T03:36:02;10.65;;;6.72;;
43807;SDS011;29438;50.664;10.098;2023-06-22T03:38:27;13.85;;;7.18;;
43807;SDS011;29438;50.664;10.098;2023-06-22T03:40:53;12.52;;;6.85;;
43807;SDS011;29438;50.664;10.098;2023-06-22T03:43:18;11.02;;;7.38;;
43807;SDS011;29438;50.664;10.098;2023-06-22T03:45:44;10.65;;;7.13;;
43807;SDS011;29438;50.664;10.098;2023-06-22T03:48:12;11.32;;;7.30;;
43807;SDS011;29438;50.664;10.098;2023-06-22T03:50:38;11.57;;;7.10;;
43807;SDS011;29438;50.664;10.098;2023-06-22T03:53:03;11.27;;;7.22;;
43807;SDS011;29438;50.664;10.098;2023-06-22T03:55:29;13.00;;;7.70;;
43807;SDS011;29438;50.664;10.098;2023-06-22T03:57:55;10.15;;;6.80;;
43807;SDS011;29438;50.664;10.098;2023-06-22T04:00:22;10.40;;;6.82;;
43807;SDS011;29438;50.664;10.098;2023-06-22T04:02:48;10.80;;;6.63;;
43807;SDS011;29438;50.664;10.098;2023-06-22T04:05:13;10.90;;;7.10;;
43807;SDS011;29438;50.664;10.098;2023-06-22T04:07:39;11.88;;;7.38;;
43807;SDS011;29438;50.664;10.098;2023-06-22T04:10:05;12.23;;;7.22;;
43807;SDS011;29438;50.664;10.098;2023-06-22T04:12:31;13.02;;;7.45;;
43807;SDS011;29438;50.664;10.098;2023-06-22T04:14:56;11.48;;;7.00;;
43807;SDS011;29438;50.664;10.098;2023-06-22T04:17:22;11.73;;;7.13;;
43807;SDS011;29438;50.664;10.098;2023-06-22T04:19:50;11.95;;;6.97;;
43807;SDS011;29438;50.664;10.098;2023-06-22T04:22:15;10.02;;;6.28;;
43807;SDS011;29438;50.664;10.098;2023-06-22T04:24:41;9.23;;;6.50;;
43807;SDS011;29438;50.664;10.098;2023-06-22T04:27:06;9.95;;;6.10;;
43807;SDS011;29438;50.664;10.098;2023-06-22T04:29:32;8.73;;;5.88;;
43807;SDS011;29438;50.664;10.098;2023-06-22T04:31:58;9.73;;;6.03;;
43807;SDS011;29438;50.664;10.098;2023-06-22T04:34:27;8.63;;;6.03;;
43807;SDS011;29438;50.664;10.098;2023-06-22T04:36:54;8.77;;;5.75;;
43807;SDS011;29438;50.664;10.098;2023-06-22T04:39:19;9.95;;;6.05;;
43807;SDS011;29438;50.664;10.098;2023-06-22T04:41:45;8.65;;;5.72;;
43807;SDS011;29438;50.664;10.098;2023-06-22T04:46:37;9.23;;;5.95;;
43807;SDS011;29438;50.664;10.098;2023-06-22T04:49:06;9.23;;;5.55;;
43807;SDS011;29438;50.664;10.098;2023-06-22T04:51:41;9.35;;;5.43;;
43807;SDS011;29438;50.664;10.098;2023-06-22T04:54:07;8.20;;;5.38;;
43807;SDS011;29438;50.664;10.098;2023-06-22T04:56:34;9.90;;;5.57;;
43807;SDS011;29438;50.664;10.098;2023-06-22T04:59:00;9.13;;;5.63;;
43807;SDS011;29438;50.664;10.098;2023-06-22T05:01:26;8.43;;;5.47;;
43807;SDS011;29438;50.664;10.098;2023-06-22T05:03:52;8.35;;;5.50;;
43807;SDS011;29438;50.664;10.098;2023-06-22T05:06:22;8.82;;;6.10;;
43807;SDS011;29438;50.664;10.098;2023-06-22T05:08:50;10.23;;;5.82;;
43807;SDS011;29438;50.664;10.098;2023-06-22T05:11:28;9.70;;;5.75;;
43807;SDS011;29438;50.664;10.098;2023-06-22T05:13:54;9.60;;;6.32;;
43807;SDS011;29438;50.664;10.098;2023-06-22T05:16:20;8.95;;;5.85;;
43807;SDS011;29438;50.664;10.098;2023-06-22T05:18:55;9.63;;;6.10;;
43807;SDS011;29438;50.664;10.098;2023-06-22T05:21:25;11.10;;;5.60;;
43807;SDS011;29438;50.664;10.098;2023-06-22T05:23:52;9.30;;;5.75;;
43807;SDS011;29438;50.664;10.098;2023-06-22T05:26:19;8.90;;;5.70;;
43807;SDS011;29438;50.664;10.098;2023-06-22T05:28:45;9.88;;;5.75;;
43807;SDS011;29438;50.664;10.098;2023-06-22T05:31:14;9.10;;;5.97;;
43807;SDS011;29438;50.664;10.098;2023-06-22T05:33:41;10.02;;;5.70;;
43807;SDS011;29438;50.664;10.098;2023-06-22T05:36:07;7.78;;;5.47;;
43807;SDS011;29438;50.664;10.098;2023-06-22T05:38:34;7.25;;;5.13;;
43807;SDS011;29438;50.664;10.098;2023-06-22T05:40:59;8.35;;;5.10;;
43807;SDS011;29438;50.664;10.098;2023-06-22T05:43:25;8.63;;;5.32;;
43807;SDS011;29438;50.664;10.098;2023-06-22T05:45:50;9.25;;;5.80;;
43807;SDS011;29438;50.664;10.098;2023-06-22T05:48:16;9.05;;;5.35;;
43807;SDS011;29438;50.664;10.098;2023-06-22T05:50:42;9.18;;;5.70;;
43807;SDS011;29438;50.664;10.098;2023-06-22T05:53:07;8.55;;;5.35;;
43807;SDS011;29438;50.664;10.098;2023-06-22T05:55:33;7.10;;;4.82;;
43807;SDS011;29438;50.664;10.098;2023-06-22T05:57:58;6.90;;;4.95;;
43807;SDS011;29438;50.664;10.098;2023-06-22T06:00:24;8.27;;;5.28;;
43807;SDS011;29438;50.664;10.098;2023-06-22T06:02:49;7.90;;;5.28;;
43807;SDS011;29438;50.664;10.098;2023-06-22T06:05:15;7.82;;;4.93;;
43807;SDS011;29438;50.664;10.098;2023-06-22T06:07:44;8.07;;;5.03;;
43807;SDS011;29438;50.664;10.098;2023-06-22T06:10:10;9.02;;;5.53;;
43807;SDS011;29438;50.664;10.098;2023-06-22T06:12:35;8.57;;;5.55;;
43807;SDS011;29438;50.664;10.098;2023-06-22T06:15:01;7.07;;;4.93;;
43807;SDS011;29438;50.664;10.098;2023-06-22T06:17:27;7.35;;;4.90;;
43807;SDS011;29438;50.664;10.098;2023-06-22T06:19:53;7.88;;;5.30;;
43807;SDS011;29438;50.664;10.098;2023-06-22T06:22:18;10.10;;;5.47;;
43807;SDS011;29438;50.664;10.098;2023-06-22T06:24:46;7.60;;;4.93;;
43807;SDS011;29438;50.664;10.098;2023-06-22T06:27:13;7.13;;;4.80;;
43807;SDS011;29438;50.664;10.098;2023-06-22T06:29:38;7.03;;;4.55;;
43807;SDS011;29438;50.664;10.098;2023-06-22T06:32:04;7.88;;;4.75;;
43807;SDS011;29438;50.664;10.098;2023-06-22T06:34:30;8.35;;;4.68;;
43807;SDS011;29438;50.664;10.098;2023-06-22T06:36:55;6.00;;;4.55;;
43807;SDS011;29438;50.664;10.098;2023-06-22T06:39:21;5.95;;;4.50;;
43807;SDS011;29438;50.664;10.098;2023-06-22T06:41:46;6.50;;;4.20;;
43807;SDS011;29438;50.664;10.098;2023-06-22T06:44:12;6.43;;;4.57;;
43807;SDS011;29438;50.664;10.098;2023-06-22T06:46:37;5.53;;;3.90;;
43807;SDS011;29438;50.664;10.098;2023-06-22T06:49:03;6.82;;;4.18;;
43807;SDS011;29438;50.664;10.098;2023-06-22T06:51:29;4.95;;;3.97;;
43807;SDS011;29438;50.664;10.098;2023-06-22T06:53:54;6.65;;;4.22;;
43807;SDS011;29438;50.664;10.098;2023-06-22T06:56:20;6.40;;;4.30;;
43807;SDS011;29438;50.664;10.098;2023-06-22T06:58:45;6.45;;;4.50;;
43807;SDS011;29438;50.664;10.098;2023-06-22T07:01:14;6.25;;;4.53;;
43807;SDS011;29438;50.664;10.098;2023-06-22T07:03:40;5.55;;;4.18;;
43807;SDS011;29438;50.664;10.098;2023-06-22T07:06:05;5.35;;;3.95;;
43807;SDS011;29438;50.664;10.098;2023-06-22T07:08:31;5.28;;;4.10;;
43807;SDS011;29438;50.664;10.098;2023-06-22T07:10:56;5.85;;;4.25;;
43807;SDS011;29438;50.664;10.098;2023-06-22T07:13:22;5.43;;;4.03;;
43807;SDS011;29438;50.664;10.098;2023-06-22T07:15:47;5.88;;;4.38;;
43807;SDS011;29438;50.664;10.098;2023-06-22T07:18:13;5.60;;;4.35;;
43807;SDS011;29438;50.664;10.098;2023-06-22T07:20:38;7.22;;;4.38;;
43807;SDS011;29438;50.664;10.098;2023-06-22T07:23:04;5.45;;;4.40;;
43807;SDS011;29438;50.664;10.098;2023-06-22T07:25:30;5.25;;;4.22;;
43807;SDS011;29438;50.664;10.098;2023-06-22T07:28:00;5.22;;;4.22;;
43807;SDS011;29438;50.664;10.098;2023-06-22T07:30:27;5.20;;;4.00;;
43807;SDS011;29438;50.664;10.098;2023-06-22T07:32:53;5.22;;;4.10;;
43807;SDS011;29438;50.664;10.098;2023-06-22T07:35:19;5.22;;;4.28;;
43807;SDS011;29438;50.664;10.098;2023-06-22T07:37:44;6.85;;;4.20;;
43807;SDS011;29438;50.664;10.098;2023-06-22T07:40:10;5.63;;;4.20;;
43807;SDS011;29438;50.664;10.098;2023-06-22T07:42:36;5.43;;;4.05;;
43807;SDS011;29438;50.664;10.098;2023-06-22T07:45:02;6.45;;;4.50;;
43807;SDS011;29438;50.664;10.098;2023-06-22T07:47:28;4.90;;;4.05;;
43807;SDS011;29438;50.664;10.098;2023-06-22T07:49:57;5.45;;;4.00;;
43807;SDS011;29438;50.664;10.098;2023-06-22T07:52:26;4.65;;;3.85;;
43807;SDS011;29438;50.664;10.098;2023-06-22T07:54:51;5.07;;;3.88;;
43807;SDS011;29438;50.664;10.098;2023-06-22T07:57:18;4.38;;;3.40;;
43807;SDS011;29438;50.664;10.098;2023-06-22T07:59:44;5.43;;;3.72;;
43807;SDS011;29438;50.664;10.098;2023-06-22T08:02:10;5.28;;;3.58;;
43807;SDS011;29438;50.664;10.098;2023-06-22T08:04:36;4.30;;;3.67;;
43807;SDS011;29438;50.664;10.098;2023-06-22T08:07:01;4.80;;;3.30;;
43807;SDS011;29438;50.664;10.098;2023-06-22T08:09:31;6.40;;;3.63;;
43807;SDS011;29438;50.664;10.098;2023-06-22T08:11:57;4.93;;;3.80;;
43807;SDS011;29438;50.664;10.098;2023-06-22T08:14:25;5.20;;;3.70;;
43807;SDS011;29438;50.664;10.098;2023-06-22T08:16:51;4.63;;;3.60;;
43807;SDS011;29438;50.664;10.098;2023-06-22T08:19:16;7.82;;;4.10;;
43807;SDS011;29438;50.664;10.098;2023-06-22T08:21:42;4.50;;;3.55;;
43807;SDS011;29438;50.664;10.098;2023-06-22T08:24:08;7.63;;;4.00;;
43807;SDS011;29438;50.664;10.098;2023-06-22T08:26:34;5.15;;;3.80;;
43807;SDS011;29438;50.664;10.098;2023-06-22T08:29:02;5.22;;;3.78;;
43807;SDS011;29438;50.664;10.098;2023-06-22T08:31:28;5.85;;;4.00;;
43807;SDS011;29438;50.664;10.098;2023-06-22T08:33:53;4.78;;;3.50;;
43807;SDS011;29438;50.664;10.098;2023-06-22T08:36:19;6.25;;;3.85;;
43807;SDS011;29438;50.664;10.098;2023-06-22T08:38:45;4.55;;;3.45;;
43807;SDS011;29438;50.664;10.098;2023-06-22T08:41:15;6.68;;;3.83;;
43807;SDS011;29438;50.664;10.098;2023-06-22T08:43:40;5.28;;;3.60;;
43807;SDS011;29438;50.664;10.098;2023-06-22T08:46:07;5.95;;;3.80;;
43807;SDS011;29438;50.664;10.098;2023-06-22T08:48:32;4.82;;;3.90;;
43807;SDS011;29438;50.664;10.098;2023-06-22T08:50:57;5.15;;;4.05;;
43807;SDS011;29438;50.664;10.098;2023-06-22T08:53:23;5.95;;;3.92;;
43807;SDS011;29438;50.664;10.098;2023-06-22T08:55:49;6.00;;;3.95;;
43807;SDS011;29438;50.664;10.098;2023-06-22T08:58:15;5.90;;;3.92;;
43807;SDS011;29438;50.664;10.098;2023-06-22T09:00:41;6.50;;;4.10;;
43807;SDS011;29438;50.664;10.098;2023-06-22T09:03:07;6.63;;;3.92;;
43807;SDS011;29438;50.664;10.098;2023-06-22T09:05:33;5.15;;;4.10;;
43807;SDS011;29438;50.664;10.098;2023-06-22T09:07:58;5.72;;;4.25;;
43807;SDS011;29438;50.664;10.098;2023-06-22T09:10:24;5.40;;;3.88;;
43807;SDS011;29438;50.664;10.098;2023-06-22T09:12:50;5.90;;;4.07;;
43807;SDS011;29438;50.664;10.098;2023-06-22T09:15:16;5.75;;;4.05;;
43807;SDS011;29438;50.664;10.098;2023-06-22T09:17:41;5.93;;;4.20;;
43807;SDS011;29438;50.664;10.098;2023-06-22T09:20:07;5.68;;;4.32;;
43807;SDS011;29438;50.664;10.098;2023-06-22T09:22:35;6.32;;;4.20;;
43807;SDS011;29438;50.664;10.098;2023-06-22T09:25:01;5.35;;;4.20;;
43807;SDS011;29438;50.664;10.098;2023-06-22T09:27:28;5.78;;;4.30;;
43807;SDS011;29438;50.664;10.098;2023-06-22T09:29:53;6.55;;;4.15;;
43807;SDS011;29438;50.664;10.098;2023-06-22T09:32:19;5.28;;;4.03;;
43807;SDS011;29438;50.664;10.098;2023-06-22T09:34:44;4.90;;;4.07;;
43807;SDS011;29438;50.664;10.098;2023-06-22T09:37:10;5.80;;;4.13;;
43807;SDS011;29438;50.664;10.098;2023-06-22T09:39:35;6.15;;;3.90;;
43807;SDS011;29438;50.664;10.098;2023-06-22T09:42:01;6.68;;;4.35;;
43807;SDS011;29438;50.664;10.098;2023-06-22T09:44:27;5.68;;;3.90;;
43807;SDS011;29438;50.664;10.098;2023-06-22T09:46:53;5.88;;;4.15;;
43807;SDS011;29438;50.664;10.098;2023-06-22T09:49:18;5.70;;;3.80;;
43807;SDS011;29438;50.664;10.098;2023-06-22T09:51:44;4.50;;;3.92;;
43807;SDS011;29438;50.664;10.098;2023-06-22T09:54:09;5.40;;;4.20;;
43807;SDS011;29438;50.664;10.098;2023-06-22T09:56:35;4.18;;;3.53;;
43807;SDS011;29438;50.664;10.098;2023-06-22T09:59:02;6.15;;;3.95;;
43807;SDS011;29438;50.664;10.098;2023-06-22T10:01:28;5.00;;;3.85;;
43807;SDS011;29438;50.664;10.098;2023-06-22T10:03:53;4.80;;;3.47;;
43807;SDS011;29438;50.664;10.098;2023-06-22T10:06:21;5.05;;;4.00;;
43807;SDS011;29438;50.664;10.098;2023-06-22T10:08:47;6.32;;;4.10;;
43807;SDS011;29438;50.664;10.098;2023-06-22T10:11:13;5.85;;;4.10;;
43807;SDS011;29438;50.664;10.098;2023-06-22T10:13:39;4.28;;;3.50;;
43807;SDS011;29438;50.664;10.098;2023-06-22T10:16:04;4.93;;;3.28;;
43807;SDS011;29438;50.664;10.098;2023-06-22T10:18:30;5.32;;;3.53;;
43807;SDS011;29438;50.664;10.098;2023-06-22T10:20:55;6.55;;;3.80;;
43807;SDS011;29438;50.664;10.098;2023-06-22T10:23:21;5.45;;;3.67;;
43807;SDS011;29438;50.664;10.098;2023-06-22T10:25:47;5.93;;;3.50;;
43807;SDS011;29438;50.664;10.098;2023-06-22T10:28:13;4.90;;;3.28;;
43807;SDS011;29438;50.664;10.098;2023-06-22T10:30:39;5.30;;;3.38;;
43807;SDS011;29438;50.664;10.098;2023-06-22T10:33:08;4.20;;;3.30;;
43807;SDS011;29438;50.664;10.098;2023-06-22T10:35:34;5.65;;;3.35;;
43807;SDS011;29438;50.664;10.098;2023-06-22T10:38:02;4.75;;;3.42;;
43807;SDS011;29438;50.664;10.098;2023-06-22T10:40:28;4.88;;;3.30;;
43807;SDS011;29438;50.664;10.098;2023-06-22T10:42:53;4.93;;;3.28;;
43807;SDS011;29438;50.664;10.098;2023-06-22T10:45:19;4.75;;;3.08;;
43807;SDS011;29438;50.664;10.098;2023-06-22T10:47:44;5.25;;;3.20;;
43807;SDS011;29438;50.664;10.098;2023-06-22T10:50:10;4.78;;;2.72;;
43807;SDS011;29438;50.664;10.098;2023-06-22T10:52:36;4.22;;;3.33;;
43807;SDS011;29438;50.664;10.098;2023-06-22T10:55:02;5.75;;;3.45;;
43807;SDS011;29438;50.664;10.098;2023-06-22T10:57:27;5.05;;;3.58;;
43807;SDS011;29438;50.664;10.098;2023-06-22T10:59:53;4.93;;;3.53;;
43807;SDS011;29438;50.664;10.098;2023-06-22T11:02:18;5.53;;;3.45;;
43807;SDS011;29438;50.664;10.098;2023-06-22T11:04:44;5.10;;;3.38;;
43807;SDS011;29438;50.664;10.098;2023-06-22T11:07:09;4.35;;;3.30;;
43807;SDS011;29438;50.664;10.098;2023-06-22T11:09:35;5.05;;;3.15;;
43807;SDS011;29438;50.664;10.098;2023-06-22T11:12:01;5.22;;;3.20;;
43807;SDS011;29438;50.664;10.098;2023-06-22T11:14:26;8.13;;;3.42;;
43807;SDS011;29438;50.664;10.098;2023-06-22T11:16:52;5.05;;;3.80;;
43807;SDS011;29438;50.664;10.098;2023-06-22T11:19:18;6.22;;;3.40;;
43807;SDS011;29438;50.664;10.098;2023-06-22T11:21:43;5.25;;;3.50;;
43807;SDS011;29438;50.664;10.098;2023-06-22T11:24:09;5.35;;;3.60;;
43807;SDS011;29438;50.664;10.098;2023-06-22T11:26:35;5.10;;;3.30;;
43807;SDS011;29438;50.664;10.098;2023-06-22T11:29:00;6.97;;;3.70;;
43807;SDS011;29438;50.664;10.098;2023-06-22T11:31:30;6.60;;;3.58;;
43807;SDS011;29438;50.664;10.098;2023-06-22T11:33:55;6.15;;;3.45;;
43807;SDS011;29438;50.664;10.098;2023-06-22T11:36:21;4.63;;;3.60;;
43807;SDS011;29438;50.664;10.098;2023-06-22T11:38:46;5.40;;;3.72;;
43807;SDS011;29438;50.664;10.098;2023-06-22T11:41:12;5.97;;;3.55;;
43807;SDS011;29438;50.664;10.098;2023-06-22T11:43:37;6.47;;;3.60;;
43807;SDS011;29438;50.664;10.098;2023-06-22T11:46:03;5.03;;;3.60;;
43807;SDS011;29438;50.664;10.098;2023-06-22T11:48:29;5.78;;;3.60;;
43807;SDS011;29438;50.664;10.098;2023-06-22T11:50:55;6.15;;;3.42;;
43807;SDS011;29438;50.664;10.098;2023-06-22T11:53:21;5.15;;;3.40;;
43807;SDS011;29438;50.664;10.098;2023-06-22T11:55:49;6.28;;;4.15;;
43807;SDS011;29438;50.664;10.098;2023-06-22T11:58:14;4.32;;;2.90;;
43807;SDS011;29438;50.664;10.098;2023-06-22T12:00:40;4.97;;;2.95;;
43807;SDS011;29438;50.664;10.098;2023-06-22T12:03:06;6.82;;;2.92;;
43807;SDS011;29438;50.664;10.098;2023-06-22T12:05:32;4.32;;;3.20;;
43807;SDS011;29438;50.664;10.098;2023-06-22T12:07:57;5.72;;;3.10;;
43807;SDS011;29438;50.664;10.098;2023-06-22T12:10:24;5.35;;;3.55;;
43807;SDS011;29438;50.664;10.098;2023-06-22T12:12:51;5.45;;;3.60;;
43807;SDS011;29438;50.664;10.098;2023-06-22T12:15:16;4.75;;;3.03;;
43807;SDS011;29438;50.664;10.098;2023-06-22T12:17:42;5.90;;;3.67;;
43807;SDS011;29438;50.664;10.098;2023-06-22T12:20:08;4.85;;;3.28;;
43807;SDS011;29438;50.664;10.098;2023-06-22T12:22:34;6.28;;;3.40;;
43807;SDS011;29438;50.664;10.098;2023-06-22T12:25:00;5.75;;;3.10;;
43807;SDS011;29438;50.664;10.098;2023-06-22T12:27:26;6.80;;;3.40;;
43807;SDS011;29438;50.664;10.098;2023-06-22T12:29:52;5.05;;;3.38;;
43807;SDS011;29438;50.664;10.098;2023-06-22T12:32:17;4.97;;;3.40;;
43807;SDS011;29438;50.664;10.098;2023-06-22T12:34:43;5.43;;;3.30;;
43807;SDS011;29438;50.664;10.098;2023-06-22T12:37:08;4.80;;;3.60;;
43807;SDS011;29438;50.664;10.098;2023-06-22T12:39:34;5.45;;;3.40;;
43807;SDS011;29438;50.664;10.098;2023-06-22T12:42:00;5.65;;;3.72;;
43807;SDS011;29438;50.664;10.098;2023-06-22T12:44:25;5.72;;;3.22;;
43807;SDS011;29438;50.664;10.098;2023-06-22T12:46:51;4.50;;;3.25;;
43807;SDS011;29438;50.664;10.098;2023-06-22T12:49:16;6.53;;;3.10;;
43807;SDS011;29438;50.664;10.098;2023-06-22T12:51:43;5.20;;;3.17;;
43807;SDS011;29438;50.664;10.098;2023-06-22T12:54:09;5.72;;;3.10;;
43807;SDS011;29438;50.664;10.098;2023-06-22T12:56:35;6.65;;;3.58;;
43807;SDS011;29438;50.664;10.098;2023-06-22T12:59:01;6.00;;;3.30;;
43807;SDS011;29438;50.664;10.098;2023-06-22T13:01:27;7.30;;;4.45;;
43807;SDS011;29438;50.664;10.098;2023-06-22T13:03:53;7.43;;;4.60;;
43807;SDS011;29438;50.664;10.098;2023-06-22T13:06:19;7.00;;;4.30;;
43807;SDS011;29438;50.664;10.098;2023-06-22T13:08:45;5.95;;;3.67;;
43807;SDS011;29438;50.664;10.098;2023-06-22T13:11:10;5.47;;;3.45;;
43807;SDS011;29438;50.664;10.098;2023-06-22T13:13:36;5.25;;;3.65;;
43807;SDS011;29438;50.664;10.098;2023-06-22T13:16:01;6.93;;;3.70;;
43807;SDS011;29438;50.664;10.098;2023-06-22T13:18:27;7.97;;;3.78;;
43807;SDS011;29438;50.664;10.098;2023-06-22T13:20:52;4.13;;;2.92;;
43807;SDS011;29438;50.664;10.098;2023-06-22T13:23:19;4.97;;;3.53;;
43807;SDS011;29438;50.664;10.098;2023-06-22T13:25:48;5.47;;;3.30;;
43807;SDS011;29438;50.664;10.098;2023-06-22T13:28:14;6.93;;;3.65;;
43807;SDS011;29438;50.664;10.098;2023-06-22T13:30:40;6.80;;;3.15;;
43807;SDS011;29438;50.664;10.098;2023-06-22T13:33:06;8.75;;;3.85;;
43807;SDS011;29438;50.664;10.098;2023-06-22T13:35:33;5.60;;;3.55;;
43807;SDS011;29438;50.664;10.098;2023-06-22T13:38:00;5.70;;;3.72;;
43807;SDS011;29438;50.664;10.098;2023-06-22T13:40:25;5.38;;;3.58;;
43807;SDS011;29438;50.664;10.098;2023-06-22T13:42:51;6.97;;;3.92;;
43807;SDS011;29438;50.664;10.098;2023-06-22T13:45:16;6.13;;;3.75;;
43807;SDS011;29438;50.664;10.098;2023-06-22T13:47:43;5.28;;;3.22;;
43807;SDS011;29438;50.664;10.098;2023-06-22T13:50:09;8.02;;;3.75;;
43807;SDS011;29438;50.664;10.098;2023-06-22T13:52:35;7.90;;;3.65;;
43807;SDS011;29438;50.664;10.098;2023-06-22T13:55:01;8.20;;;3.95;;
43807;SDS011;29438;50.664;10.098;2023-06-22T13:57:28;5.25;;;3.60;;
43807;SDS011;29438;50.664;10.098;2023-06-22T13:59:53;5.85;;;4.30;;
43807;SDS011;29438;50.664;10.098;2023-06-22T14:02:19;6.00;;;3.83;;
43807;SDS011;29438;50.664;10.098;2023-06-22T14:04:44;7.45;;;4.07;;
43807;SDS011;29438;50.664;10.098;2023-06-22T14:07:10;6.25;;;3.90;;
43807;SDS011;29438;50.664;10.098;2023-06-22T14:09:35;6.05;;;4.03;;
43807;SDS011;29438;50.664;10.098;2023-06-22T14:12:04;7.57;;;4.03;;
43807;SDS011;29438;50.664;10.098;2023-06-22T14:14:31;6.85;;;3.85;;
43807;SDS011;29438;50.664;10.098;2023-06-22T14:16:58;6.72;;;3.97;;
43807;SDS011;29438;50.664;10.098;2023-06-22T14:19:24;5.70;;;3.90;;
43807;SDS011;29438;50.664;10.098;2023-06-22T14:21:49;5.05;;;3.75;;
43807;SDS011;29438;50.664;10.098;2023-06-22T14:24:15;6.70;;;4.00;;
43807;SDS011;29438;50.664;10.098;2023-06-22T14:26:40;6.18;;;3.83;;
43807;SDS011;29438;50.664;10.098;2023-06-22T14:29:06;7.75;;;3.95;;
43807;SDS011;29438;50.664;10.098;2023-06-22T14:31:31;7.38;;;3.60;;
43807;SDS011;29438;50.664;10.098;2023-06-22T14:33:57;5.35;;;3.40;;
43807;SDS011;29438;50.664;10.098;2023-06-22T14:36:23;6.60;;;3.60;;
43807;SDS011;29438;50.664;10.098;2023-06-22T14:38:48;6.22;;;3.50;;
43807;SDS011;29438;50.664;10.098;2023-06-22T14:41:14;6.95;;;4.07;;
43807;SDS011;29438;50.664;10.098;2023-06-22T14:43:45;6.35;;;3.90;;